sensor_id;sensor_type;location;lat;lon;timestamp;P1;durP1;ratioP1;P2;durP2;ratioP2
12263;SDS011;6194;49.010;8.414;2023-03-14T00:02:20;2.23;;;1.30;;
12263;SDS011;6194;49.010;8.414;2023-03-14T00:04:45;1.00;;;1.00;;
12263;SDS011;6194;49.010;8.414;2023-03-14T00:07:11;2.40;;;1.10;;
12263;SDS011;6194;49.010;8.414;2023-03-14T00:09:37;1.40;;;1.30;;
12263;SDS011;6194;49.010;8.414;2023-03-14T00:12:03;1.73;;;1.30;;
12263;SDS011;6194;49.010;8.414;2023-03-14T00:14:29;1.27;;;1.17;;
12263;SDS011;6194;49.010;8.414;2023-03-14T00:16:56;1.50;;;1.40;;
12263;SDS011;6194;49.010;8.414;2023-03-14T00:19:22;1.80;;;1.00;;
12263;SDS011;6194;49.010;8.414;2023-03-14T00:21:47;1.13;;;1.13;;
12263;SDS011;6194;49.010;8.414;2023-03-14T00:24:13;1.30;;;1.20;;
12263;SDS011;6194;49.010;8.414;2023-03-14T00:26:38;1.10;;;1.00;;
12263;SDS011;6194;49.010;8.414;2023-03-14T00:29:04;1.20;;;1.10;;
12263;SDS011;6194;49.010;8.414;2023-03-14T00:31:29;1.23;;;1.20;;
12263;SDS011;6194;49.010;8.414;2023-03-14T00:33:55;2.83;;;1.03;;
12263;SDS011;6194;49.010;8.414;2023-03-14T00:36:21;1.10;;;1.00;;
12263;SDS011;6194;49.010;8.414;2023-03-14T00:38:48;1.93;;;1.30;;
12263;SDS011;6194;49.010;8.414;2023-03-14T00:41:16;1.07;;;1.00;;
12263;SDS011;6194;49.010;8.414;2023-03-14T00:43:44;1.40;;;1.10;;
12263;SDS011;6194;49.010;8.414;2023-03-14T00:46:09;1.20;;;1.00;;
12263;SDS011;6194;49.010;8.414;2023-03-14T00:48:36;1.13;;;1.10;;
12263;SDS011;6194;49.010;8.414;2023-03-14T00:51:02;1.13;;;1.10;;
12263;SDS011;6194;49.010;8.414;2023-03-14T00:53:29;1.00;;;1.00;;
12263;SDS011;6194;49.010;8.414;2023-03-14T00:55:55;1.10;;;1.00;;
12263;SDS011;6194;49.010;8.414;2023-03-14T00:58:22;1.23;;;1.23;;
12263;SDS011;6194;49.010;8.414;2023-03-14T01:00:47;1.67;;;0.90;;
12263;SDS011;6194;49.010;8.414;2023-03-14T01:03:13;0.83;;;0.83;;
12263;SDS011;6194;49.010;8.414;2023-03-14T01:05:39;0.77;;;0.77;;
12263;SDS011;6194;49.010;8.414;2023-03-14T01:08:05;1.63;;;0.90;;
12263;SDS011;6194;49.010;8.414;2023-03-14T01:10:32;1.60;;;1.00;;
12263;SDS011;6194;49.010;8.414;2023-03-14T01:12:58;1.07;;;0.97;;
12263;SDS011;6194;49.010;8.414;2023-03-14T01:15:24;0.87;;;0.87;;
12263;SDS011;6194;49.010;8.414;2023-03-14T01:17:49;1.00;;;1.00;;
12263;SDS011;6194;49.010;8.414;2023-03-14T01:20:16;1.60;;;1.10;;
12263;SDS011;6194;49.010;8.414;2023-03-14T01:22:42;1.03;;;1.00;;
12263;SDS011;6194;49.010;8.414;2023-03-14T01:25:09;1.03;;;1.03;;
12263;SDS011;6194;49.010;8.414;2023-03-14T01:27:37;1.10;;;1.00;;
12263;SDS011;6194;49.010;8.414;2023-03-14T01:30:03;1.03;;;1.00;;
12263;SDS011;6194;49.010;8.414;2023-03-14T01:32:29;1.00;;;1.00;;
12263;SDS011;6194;49.010;8.414;2023-03-14T01:34:56;2.30;;;1.27;;
12263;SDS011;6194;49.010;8.414;2023-03-14T01:37:21;1.13;;;1.10;;
12263;SDS011;6194;49.010;8.414;2023-03-14T01:39:47;1.20;;;1.10;;
12263;SDS011;6194;49.010;8.414;2023-03-14T01:42:13;1.77;;;1.10;;
12263;SDS011;6194;49.010;8.414;2023-03-14T01:47:18;1.30;;;1.20;;
12263;SDS011;6194;49.010;8.414;2023-03-14T01:49:45;1.00;;;0.97;;
12263;SDS011;6194;49.010;8.414;2023-03-14T01:52:27;1.07;;;1.00;;
12263;SDS011;6194;49.010;8.414;2023-03-14T01:55:03;1.43;;;1.30;;
12263;SDS011;6194;49.010;8.414;2023-03-14T01:57:41;1.37;;;1.27;;
12263;SDS011;6194;49.010;8.414;2023-03-14T02:00:21;1.80;;;1.20;;
12263;SDS011;6194;49.010;8.414;2023-03-14T02:02:51;1.57;;;1.30;;
12263;SDS011;6194;49.010;8.414;2023-03-14T02:05:25;1.97;;;1.50;;
12263;SDS011;6194;49.010;8.414;2023-03-14T02:07:56;1.47;;;1.30;;
12263;SDS011;6194;49.010;8.414;2023-03-14T02:10:32;1.10;;;1.10;;
12263;SDS011;6194;49.010;8.414;2023-03-14T02:13:06;1.93;;;1.10;;
12263;SDS011;6194;49.010;8.414;2023-03-14T02:15:32;4.40;;;2.23;;
12263;SDS011;6194;49.010;8.414;2023-03-14T02:17:59;1.10;;;1.00;;
12263;SDS011;6194;49.010;8.414;2023-03-14T02:22:57;1.43;;;1.17;;
12263;SDS011;6194;49.010;8.414;2023-03-14T02:27:51;1.23;;;1.13;;
12263;SDS011;6194;49.010;8.414;2023-03-14T02:30:24;0.90;;;0.90;;
12263;SDS011;6194;49.010;8.414;2023-03-14T02:32:54;1.23;;;1.17;;
12263;SDS011;6194;49.010;8.414;2023-03-14T02:35:24;1.40;;;1.20;;
12263;SDS011;6194;49.010;8.414;2023-03-14T02:37:55;1.30;;;1.20;;
12263;SDS011;6194;49.010;8.414;2023-03-14T02:40:29;1.40;;;1.30;;
12263;SDS011;6194;49.010;8.414;2023-03-14T02:42:54;1.10;;;1.00;;
12263;SDS011;6194;49.010;8.414;2023-03-14T02:47:47;1.77;;;1.13;;
12263;SDS011;6194;49.010;8.414;2023-03-14T02:50:20;2.67;;;1.27;;
12263;SDS011;6194;49.010;8.414;2023-03-14T02:52:48;3.07;;;1.40;;
12263;SDS011;6194;49.010;8.414;2023-03-14T02:55:14;1.40;;;1.20;;
12263;SDS011;6194;49.010;8.414;2023-03-14T02:57:40;2.27;;;1.20;;
12263;SDS011;6194;49.010;8.414;2023-03-14T03:00:05;3.07;;;1.47;;
12263;SDS011;6194;49.010;8.414;2023-03-14T03:02:32;1.10;;;1.10;;
12263;SDS011;6194;49.010;8.414;2023-03-14T03:04:58;2.90;;;1.10;;
12263;SDS011;6194;49.010;8.414;2023-03-14T03:07:24;1.37;;;1.27;;
12263;SDS011;6194;49.010;8.414;2023-03-14T03:09:50;1.97;;;1.20;;
12263;SDS011;6194;49.010;8.414;2023-03-14T03:12:15;3.40;;;1.50;;
12263;SDS011;6194;49.010;8.414;2023-03-14T03:14:41;2.77;;;1.63;;
12263;SDS011;6194;49.010;8.414;2023-03-14T03:17:06;2.93;;;1.20;;
12263;SDS011;6194;49.010;8.414;2023-03-14T03:19:32;1.67;;;1.30;;
12263;SDS011;6194;49.010;8.414;2023-03-14T03:21:59;2.63;;;1.40;;
12263;SDS011;6194;49.010;8.414;2023-03-14T03:24:25;2.07;;;1.30;;
12263;SDS011;6194;49.010;8.414;2023-03-14T03:26:51;2.07;;;1.30;;
12263;SDS011;6194;49.010;8.414;2023-03-14T03:29:17;2.13;;;1.33;;
12263;SDS011;6194;49.010;8.414;2023-03-14T03:31:43;2.43;;;1.20;;
12263;SDS011;6194;49.010;8.414;2023-03-14T03:34:10;1.80;;;1.17;;
12263;SDS011;6194;49.010;8.414;2023-03-14T03:36:36;2.57;;;1.57;;
12263;SDS011;6194;49.010;8.414;2023-03-14T03:39:02;2.37;;;1.23;;
12263;SDS011;6194;49.010;8.414;2023-03-14T03:41:28;1.10;;;1.00;;
12263;SDS011;6194;49.010;8.414;2023-03-14T03:43:55;2.80;;;1.40;;
12263;SDS011;6194;49.010;8.414;2023-03-14T03:46:21;2.63;;;1.50;;
12263;SDS011;6194;49.010;8.414;2023-03-14T03:48:47;2.63;;;1.30;;
12263;SDS011;6194;49.010;8.414;2023-03-14T03:51:13;1.93;;;1.17;;
12263;SDS011;6194;49.010;8.414;2023-03-14T03:53:40;1.47;;;1.10;;
12263;SDS011;6194;49.010;8.414;2023-03-14T03:56:06;2.03;;;1.50;;
12263;SDS011;6194;49.010;8.414;2023-03-14T03:58:32;2.27;;;1.47;;
12263;SDS011;6194;49.010;8.414;2023-03-14T04:00:58;1.77;;;1.20;;
12263;SDS011;6194;49.010;8.414;2023-03-14T04:03:24;2.80;;;1.60;;
12263;SDS011;6194;49.010;8.414;2023-03-14T04:06:02;2.20;;;1.20;;
12263;SDS011;6194;49.010;8.414;2023-03-14T04:08:32;2.27;;;1.20;;
12263;SDS011;6194;49.010;8.414;2023-03-14T04:10:58;2.57;;;1.17;;
12263;SDS011;6194;49.010;8.414;2023-03-14T04:13:25;2.40;;;1.43;;
12263;SDS011;6194;49.010;8.414;2023-03-14T04:15:52;2.40;;;1.20;;
12263;SDS011;6194;49.010;8.414;2023-03-14T04:18:18;2.57;;;1.50;;
12263;SDS011;6194;49.010;8.414;2023-03-14T04:20:43;3.73;;;1.30;;
12263;SDS011;6194;49.010;8.414;2023-03-14T04:23:09;1.93;;;1.20;;
12263;SDS011;6194;49.010;8.414;2023-03-14T04:25:35;3.17;;;1.40;;
12263;SDS011;6194;49.010;8.414;2023-03-14T04:28:01;3.03;;;1.33;;
12263;SDS011;6194;49.010;8.414;2023-03-14T04:30:28;2.23;;;1.20;;
12263;SDS011;6194;49.010;8.414;2023-03-14T04:32:53;1.97;;;1.33;;
12263;SDS011;6194;49.010;8.414;2023-03-14T04:35:19;3.37;;;1.53;;
12263;SDS011;6194;49.010;8.414;2023-03-14T04:37:45;3.07;;;1.57;;
12263;SDS011;6194;49.010;8.414;2023-03-14T04:40:13;2.87;;;1.60;;
12263;SDS011;6194;49.010;8.414;2023-03-14T04:42:40;2.87;;;1.27;;
12263;SDS011;6194;49.010;8.414;2023-03-14T04:45:06;2.80;;;1.40;;
12263;SDS011;6194;49.010;8.414;2023-03-14T04:47:32;3.70;;;1.50;;
12263;SDS011;6194;49.010;8.414;2023-03-14T04:49:57;2.33;;;1.40;;
12263;SDS011;6194;49.010;8.414;2023-03-14T04:52:23;3.07;;;1.40;;
12263;SDS011;6194;49.010;8.414;2023-03-14T04:54:49;5.10;;;1.30;;
12263;SDS011;6194;49.010;8.414;2023-03-14T04:57:14;4.83;;;1.70;;
12263;SDS011;6194;49.010;8.414;2023-03-14T04:59:40;2.83;;;1.50;;
12263;SDS011;6194;49.010;8.414;2023-03-14T05:02:05;2.73;;;1.30;;
12263;SDS011;6194;49.010;8.414;2023-03-14T05:04:31;5.33;;;1.50;;
12263;SDS011;6194;49.010;8.414;2023-03-14T05:06:58;2.60;;;1.50;;
12263;SDS011;6194;49.010;8.414;2023-03-14T05:09:24;3.43;;;1.23;;
12263;SDS011;6194;49.010;8.414;2023-03-14T05:11:50;2.67;;;1.23;;
12263;SDS011;6194;49.010;8.414;2023-03-14T05:14:15;2.40;;;1.27;;
12263;SDS011;6194;49.010;8.414;2023-03-14T05:16:41;2.97;;;1.43;;
12263;SDS011;6194;49.010;8.414;2023-03-14T05:19:07;2.57;;;1.30;;
12263;SDS011;6194;49.010;8.414;2023-03-14T05:21:32;2.10;;;1.27;;
12263;SDS011;6194;49.010;8.414;2023-03-14T05:23:58;1.80;;;1.20;;
12263;SDS011;6194;49.010;8.414;2023-03-14T05:26:24;3.07;;;1.40;;
12263;SDS011;6194;49.010;8.414;2023-03-14T05:28:49;2.23;;;1.07;;
12263;SDS011;6194;49.010;8.414;2023-03-14T05:31:15;2.47;;;1.20;;
12263;SDS011;6194;49.010;8.414;2023-03-14T05:33:40;6.13;;;1.50;;
12263;SDS011;6194;49.010;8.414;2023-03-14T05:36:06;2.83;;;1.43;;
12263;SDS011;6194;49.010;8.414;2023-03-14T05:38:32;2.20;;;1.10;;
12263;SDS011;6194;49.010;8.414;2023-03-14T05:40:57;1.47;;;1.07;;
12263;SDS011;6194;49.010;8.414;2023-03-14T05:43:23;2.43;;;1.20;;
12263;SDS011;6194;49.010;8.414;2023-03-14T05:45:48;2.43;;;1.53;;
12263;SDS011;6194;49.010;8.414;2023-03-14T05:48:14;2.83;;;1.00;;
12263;SDS011;6194;49.010;8.414;2023-03-14T05:50:41;2.70;;;1.40;;
12263;SDS011;6194;49.010;8.414;2023-03-14T05:53:07;1.90;;;1.20;;
12263;SDS011;6194;49.010;8.414;2023-03-14T05:55:33;2.33;;;1.03;;
12263;SDS011;6194;49.010;8.414;2023-03-14T05:57:58;2.63;;;1.50;;
12263;SDS011;6194;49.010;8.414;2023-03-14T06:00:24;3.13;;;1.40;;
12263;SDS011;6194;49.010;8.414;2023-03-14T06:02:49;3.43;;;1.30;;
12263;SDS011;6194;49.010;8.414;2023-03-14T06:05:15;2.37;;;1.27;;
12263;SDS011;6194;49.010;8.414;2023-03-14T06:07:40;4.17;;;1.70;;
12263;SDS011;6194;49.010;8.414;2023-03-14T06:10:06;2.13;;;1.30;;
12263;SDS011;6194;49.010;8.414;2023-03-14T06:12:32;1.53;;;0.97;;
12263;SDS011;6194;49.010;8.414;2023-03-14T06:14:58;1.60;;;1.13;;
12263;SDS011;6194;49.010;8.414;2023-03-14T06:17:23;3.80;;;1.30;;
12263;SDS011;6194;49.010;8.414;2023-03-14T06:19:49;1.93;;;1.13;;
12263;SDS011;6194;49.010;8.414;2023-03-14T06:22:14;3.80;;;1.17;;
12263;SDS011;6194;49.010;8.414;2023-03-14T06:24:40;1.93;;;1.23;;
12263;SDS011;6194;49.010;8.414;2023-03-14T06:27:06;3.77;;;1.30;;
12263;SDS011;6194;49.010;8.414;2023-03-14T06:29:31;3.07;;;1.37;;
12263;SDS011;6194;49.010;8.414;2023-03-14T06:31:57;3.60;;;1.40;;
12263;SDS011;6194;49.010;8.414;2023-03-14T06:34:22;4.20;;;1.33;;
12263;SDS011;6194;49.010;8.414;2023-03-14T06:36:48;2.77;;;1.20;;
12263;SDS011;6194;49.010;8.414;2023-03-14T06:39:13;3.57;;;1.43;;
12263;SDS011;6194;49.010;8.414;2023-03-14T06:41:39;3.33;;;1.43;;
12263;SDS011;6194;49.010;8.414;2023-03-14T06:44:05;1.30;;;1.20;;
12263;SDS011;6194;49.010;8.414;2023-03-14T06:46:30;2.43;;;1.43;;
12263;SDS011;6194;49.010;8.414;2023-03-14T06:48:56;3.40;;;1.30;;
12263;SDS011;6194;49.010;8.414;2023-03-14T06:51:22;2.47;;;1.00;;
12263;SDS011;6194;49.010;8.414;2023-03-14T06:53:47;1.67;;;1.20;;
12263;SDS011;6194;49.010;8.414;2023-03-14T06:56:13;2.97;;;1.30;;
12263;SDS011;6194;49.010;8.414;2023-03-14T06:58:38;1.53;;;1.20;;
12263;SDS011;6194;49.010;8.414;2023-03-14T07:01:04;1.27;;;1.17;;
12263;SDS011;6194;49.010;8.414;2023-03-14T07:03:30;4.47;;;1.20;;
12263;SDS011;6194;49.010;8.414;2023-03-14T07:05:56;1.63;;;1.13;;
12263;SDS011;6194;49.010;8.414;2023-03-14T07:08:21;1.17;;;1.00;;
12263;SDS011;6194;49.010;8.414;2023-03-14T07:10:47;5.20;;;1.53;;
12263;SDS011;6194;49.010;8.414;2023-03-14T07:13:13;1.67;;;1.10;;
12263;SDS011;6194;49.010;8.414;2023-03-14T07:15:38;2.30;;;1.10;;
12263;SDS011;6194;49.010;8.414;2023-03-14T07:18:04;4.63;;;1.20;;
12263;SDS011;6194;49.010;8.414;2023-03-14T07:20:30;1.53;;;0.97;;
12263;SDS011;6194;49.010;8.414;2023-03-14T07:22:57;1.00;;;0.80;;
12263;SDS011;6194;49.010;8.414;2023-03-14T07:25:24;1.97;;;1.07;;
12263;SDS011;6194;49.010;8.414;2023-03-14T07:27:50;1.60;;;1.10;;
12263;SDS011;6194;49.010;8.414;2023-03-14T07:30:15;2.63;;;1.10;;
12263;SDS011;6194;49.010;8.414;2023-03-14T07:32:41;2.87;;;1.10;;
12263;SDS011;6194;49.010;8.414;2023-03-14T07:35:07;1.33;;;1.10;;
12263;SDS011;6194;49.010;8.414;2023-03-14T07:37:33;1.17;;;1.07;;
12263;SDS011;6194;49.010;8.414;2023-03-14T07:39:59;2.30;;;0.80;;
12263;SDS011;6194;49.010;8.414;2023-03-14T07:42:25;1.10;;;0.90;;
12263;SDS011;6194;49.010;8.414;2023-03-14T07:44:50;4.73;;;1.20;;
12263;SDS011;6194;49.010;8.414;2023-03-14T07:47:16;2.57;;;1.07;;
12263;SDS011;6194;49.010;8.414;2023-03-14T07:49:41;2.57;;;1.40;;
12263;SDS011;6194;49.010;8.414;2023-03-14T07:52:07;1.03;;;0.90;;
12263;SDS011;6194;49.010;8.414;2023-03-14T07:54:32;1.50;;;1.10;;
12263;SDS011;6194;49.010;8.414;2023-03-14T07:56:58;1.10;;;1.00;;
12263;SDS011;6194;49.010;8.414;2023-03-14T07:59:25;1.60;;;1.10;;
12263;SDS011;6194;49.010;8.414;2023-03-14T08:01:54;2.20;;;1.00;;
12263;SDS011;6194;49.010;8.414;2023-03-14T08:04:19;2.25;;;1.00;;
12263;SDS011;6194;49.010;8.414;2023-03-14T08:06:45;1.45;;;1.00;;
12263;SDS011;6194;49.010;8.414;2023-03-14T08:09:11;2.07;;;1.10;;
12263;SDS011;6194;49.010;8.414;2023-03-14T08:11:36;2.30;;;1.27;;
12263;SDS011;6194;49.010;8.414;2023-03-14T08:14:02;1.30;;;1.20;;
12263;SDS011;6194;49.010;8.414;2023-03-14T08:16:27;1.40;;;1.00;;
12263;SDS011;6194;49.010;8.414;2023-03-14T08:18:53;1.43;;;1.07;;
12263;SDS011;6194;49.010;8.414;2023-03-14T08:21:18;1.10;;;1.00;;
12263;SDS011;6194;49.010;8.414;2023-03-14T08:23:44;3.47;;;1.57;;
12263;SDS011;6194;49.010;8.414;2023-03-14T08:26:10;1.00;;;0.90;;
12263;SDS011;6194;49.010;8.414;2023-03-14T08:28:35;1.30;;;0.87;;
12263;SDS011;6194;49.010;8.414;2023-03-14T08:31:01;1.80;;;1.17;;
12263;SDS011;6194;49.010;8.414;2023-03-14T08:33:27;1.33;;;0.90;;
12263;SDS011;6194;49.010;8.414;2023-03-14T08:35:54;1.83;;;1.10;;
12263;SDS011;6194;49.010;8.414;2023-03-14T08:38:21;1.00;;;0.87;;
12263;SDS011;6194;49.010;8.414;2023-03-14T08:40:47;1.33;;;0.80;;
12263;SDS011;6194;49.010;8.414;2023-03-14T08:43:14;3.90;;;0.70;;
12263;SDS011;6194;49.010;8.414;2023-03-14T08:45:39;2.80;;;0.87;;
12263;SDS011;6194;49.010;8.414;2023-03-14T08:48:05;2.20;;;0.80;;
12263;SDS011;6194;49.010;8.414;2023-03-14T08:50:31;1.57;;;1.10;;
12263;SDS011;6194;49.010;8.414;2023-03-14T08:52:56;1.47;;;0.80;;
12263;SDS011;6194;49.010;8.414;2023-03-14T08:55:26;1.00;;;0.90;;
12263;SDS011;6194;49.010;8.414;2023-03-14T08:57:54;1.23;;;0.83;;
12263;SDS011;6194;49.010;8.414;2023-03-14T09:00:20;1.08;;;0.90;;
12263;SDS011;6194;49.010;8.414;2023-03-14T09:02:46;1.30;;;0.80;;
12263;SDS011;6194;49.010;8.414;2023-03-14T09:05:11;0.90;;;0.90;;
12263;SDS011;6194;49.010;8.414;2023-03-14T09:07:38;0.67;;;0.60;;
12263;SDS011;6194;49.010;8.414;2023-03-14T09:10:04;0.90;;;0.90;;
12263;SDS011;6194;49.010;8.414;2023-03-14T09:12:30;1.10;;;1.00;;
12263;SDS011;6194;49.010;8.414;2023-03-14T09:14:56;2.23;;;0.90;;
12263;SDS011;6194;49.010;8.414;2023-03-14T09:17:22;1.20;;;0.80;;
12263;SDS011;6194;49.010;8.414;2023-03-14T09:19:48;1.10;;;0.73;;
12263;SDS011;6194;49.010;8.414;2023-03-14T09:22:13;2.95;;;1.10;;
12263;SDS011;6194;49.010;8.414;2023-03-14T09:24:40;2.28;;;1.10;;
12263;SDS011;6194;49.010;8.414;2023-03-14T09:27:06;1.25;;;1.10;;
12263;SDS011;6194;49.010;8.414;2023-03-14T09:29:32;1.98;;;1.17;;
12263;SDS011;6194;49.010;8.414;2023-03-14T09:31:58;0.90;;;0.90;;
12263;SDS011;6194;49.010;8.414;2023-03-14T09:34:24;0.82;;;0.82;;
12263;SDS011;6194;49.010;8.414;2023-03-14T09:36:50;1.15;;;0.80;;
12263;SDS011;6194;49.010;8.414;2023-03-14T09:39:15;1.77;;;0.90;;
12263;SDS011;6194;49.010;8.414;2023-03-14T09:41:46;1.13;;;0.80;;
12263;SDS011;6194;49.010;8.414;2023-03-14T09:46:57;0.70;;;0.70;;
12263;SDS011;6194;49.010;8.414;2023-03-14T09:49:36;1.50;;;0.80;;
12263;SDS011;6194;49.010;8.414;2023-03-14T09:54:55;1.00;;;0.70;;
12263;SDS011;6194;49.010;8.414;2023-03-14T09:57:25;0.77;;;0.77;;
12263;SDS011;6194;49.010;8.414;2023-03-14T09:59:52;2.43;;;0.83;;
12263;SDS011;6194;49.010;8.414;2023-03-14T10:02:26;1.60;;;0.90;;
12263;SDS011;6194;49.010;8.414;2023-03-14T10:04:58;1.50;;;0.70;;
12263;SDS011;6194;49.010;8.414;2023-03-14T10:07:29;0.70;;;0.70;;
12263;SDS011;6194;49.010;8.414;2023-03-14T10:09:57;2.13;;;1.00;;
12263;SDS011;6194;49.010;8.414;2023-03-14T10:12:33;0.90;;;0.90;;
12263;SDS011;6194;49.010;8.414;2023-03-14T10:15:05;2.40;;;1.30;;
12263;SDS011;6194;49.010;8.414;2023-03-14T10:17:41;0.90;;;0.90;;
12263;SDS011;6194;49.010;8.414;2023-03-14T10:20:33;1.07;;;0.90;;
12263;SDS011;6194;49.010;8.414;2023-03-14T10:23:01;1.47;;;0.63;;
12263;SDS011;6194;49.010;8.414;2023-03-14T10:25:30;0.80;;;0.80;;
12263;SDS011;6194;49.010;8.414;2023-03-14T10:27:57;0.87;;;0.80;;
12263;SDS011;6194;49.010;8.414;2023-03-14T10:30:33;1.50;;;1.07;;
12263;SDS011;6194;49.010;8.414;2023-03-14T10:33:23;1.27;;;1.10;;
12263;SDS011;6194;49.010;8.414;2023-03-14T10:38:22;1.30;;;1.20;;
12263;SDS011;6194;49.010;8.414;2023-03-14T10:40:52;2.40;;;1.00;;
12263;SDS011;6194;49.010;8.414;2023-03-14T10:43:21;1.47;;;1.10;;
12263;SDS011;6194;49.010;8.414;2023-03-14T10:45:55;2.10;;;1.00;;
12263;SDS011;6194;49.010;8.414;2023-03-14T10:48:36;1.40;;;1.30;;
12263;SDS011;6194;49.010;8.414;2023-03-14T10:51:06;0.73;;;0.70;;
12263;SDS011;6194;49.010;8.414;2023-03-14T10:53:33;1.83;;;0.97;;
12263;SDS011;6194;49.010;8.414;2023-03-14T10:56:02;0.90;;;0.90;;
12263;SDS011;6194;49.010;8.414;2023-03-14T10:58:30;1.50;;;1.40;;
12263;SDS011;6194;49.010;8.414;2023-03-14T11:14:41;0.90;;;0.90;;
12263;SDS011;6194;49.010;8.414;2023-03-14T11:22:53;0.77;;;0.77;;
12263;SDS011;6194;49.010;8.414;2023-03-14T11:28:15;1.20;;;1.10;;
12263;SDS011;6194;49.010;8.414;2023-03-14T11:30:51;1.30;;;1.20;;
12263;SDS011;6194;49.010;8.414;2023-03-14T11:33:21;1.00;;;1.00;;
12263;SDS011;6194;49.010;8.414;2023-03-14T11:36:03;1.40;;;1.30;;
12263;SDS011;6194;49.010;8.414;2023-03-14T11:38:38;1.70;;;1.10;;
12263;SDS011;6194;49.010;8.414;2023-03-14T11:41:16;1.07;;;1.07;;
12263;SDS011;6194;49.010;8.414;2023-03-14T11:43:56;1.17;;;1.17;;
12263;SDS011;6194;49.010;8.414;2023-03-14T11:46:28;1.80;;;1.27;;
12263;SDS011;6194;49.010;8.414;2023-03-14T11:51:41;1.43;;;1.00;;
12263;SDS011;6194;49.010;8.414;2023-03-14T11:54:14;1.37;;;1.27;;
12263;SDS011;6194;49.010;8.414;2023-03-14T12:02:27;2.03;;;1.30;;
12263;SDS011;6194;49.010;8.414;2023-03-14T12:08:18;1.60;;;1.20;;
12263;SDS011;6194;49.010;8.414;2023-03-14T12:11:29;1.30;;;1.30;;
12263;SDS011;6194;49.010;8.414;2023-03-14T12:13:50;1.37;;;1.33;;
12263;SDS011;6194;49.010;8.414;2023-03-14T12:18:49;1.50;;;1.40;;
12263;SDS011;6194;49.010;8.414;2023-03-14T12:21:16;1.40;;;1.30;;
12263;SDS011;6194;49.010;8.414;2023-03-14T12:26:22;4.60;;;1.60;;
12263;SDS011;6194;49.010;8.414;2023-03-14T12:42:17;1.97;;;1.27;;
12263;SDS011;6194;49.010;8.414;2023-03-14T12:50:07;3.37;;;1.60;;
12263;SDS011;6194;49.010;8.414;2023-03-14T12:55:47;1.30;;;1.20;;
12263;SDS011;6194;49.010;8.414;2023-03-14T12:58:31;3.50;;;1.60;;
12263;SDS011;6194;49.010;8.414;2023-03-14T13:01:03;3.13;;;1.50;;
12263;SDS011;6194;49.010;8.414;2023-03-14T13:11:54;1.87;;;1.27;;
12263;SDS011;6194;49.010;8.414;2023-03-14T13:14:21;1.13;;;1.03;;
12263;SDS011;6194;49.010;8.414;2023-03-14T13:16:48;1.60;;;1.07;;
12263;SDS011;6194;49.010;8.414;2023-03-14T13:19:16;1.80;;;1.40;;
12263;SDS011;6194;49.010;8.414;2023-03-14T13:21:46;2.57;;;1.40;;
12263;SDS011;6194;49.010;8.414;2023-03-14T13:24:32;4.27;;;1.50;;
12263;SDS011;6194;49.010;8.414;2023-03-14T13:26:59;2.53;;;1.00;;
12263;SDS011;6194;49.010;8.414;2023-03-14T13:29:26;1.70;;;1.40;;
12263;SDS011;6194;49.010;8.414;2023-03-14T13:31:54;4.10;;;1.57;;
12263;SDS011;6194;49.010;8.414;2023-03-14T13:34:25;1.70;;;1.40;;
12263;SDS011;6194;49.010;8.414;2023-03-14T13:36:54;1.53;;;1.10;;
12263;SDS011;6194;49.010;8.414;2023-03-14T13:39:20;1.10;;;1.00;;
12263;SDS011;6194;49.010;8.414;2023-03-14T13:41:50;1.67;;;1.57;;
12263;SDS011;6194;49.010;8.414;2023-03-14T13:44:33;2.20;;;1.10;;
12263;SDS011;6194;49.010;8.414;2023-03-14T13:47:00;1.40;;;1.17;;
12263;SDS011;6194;49.010;8.414;2023-03-14T13:49:27;1.40;;;1.27;;
12263;SDS011;6194;49.010;8.414;2023-03-14T13:51:57;2.60;;;1.03;;
12263;SDS011;6194;49.010;8.414;2023-03-14T13:54:23;1.30;;;1.10;;
12263;SDS011;6194;49.010;8.414;2023-03-14T13:57:02;2.67;;;1.23;;
12263;SDS011;6194;49.010;8.414;2023-03-14T13:59:30;1.40;;;1.07;;
12263;SDS011;6194;49.010;8.414;2023-03-14T14:01:58;2.30;;;1.20;;
12263;SDS011;6194;49.010;8.414;2023-03-14T14:04:26;3.57;;;1.13;;
12263;SDS011;6194;49.010;8.414;2023-03-14T14:06:54;2.27;;;1.40;;
12263;SDS011;6194;49.010;8.414;2023-03-14T14:09:24;1.40;;;1.20;;
12263;SDS011;6194;49.010;8.414;2023-03-14T14:16:51;3.83;;;1.50;;
12263;SDS011;6194;49.010;8.414;2023-03-14T14:19:18;3.10;;;1.37;;
12263;SDS011;6194;49.010;8.414;2023-03-14T14:21:46;3.13;;;1.43;;
12263;SDS011;6194;49.010;8.414;2023-03-14T14:24:13;4.87;;;1.60;;
12263;SDS011;6194;49.010;8.414;2023-03-14T14:26:40;2.67;;;1.30;;
12263;SDS011;6194;49.010;8.414;2023-03-14T14:29:20;1.43;;;1.10;;
12263;SDS011;6194;49.010;8.414;2023-03-14T14:34:38;2.63;;;1.67;;
12263;SDS011;6194;49.010;8.414;2023-03-14T14:37:28;2.63;;;1.37;;
12263;SDS011;6194;49.010;8.414;2023-03-14T14:40:00;4.13;;;1.60;;
12263;SDS011;6194;49.010;8.414;2023-03-14T14:42:35;2.07;;;1.50;;
12263;SDS011;6194;49.010;8.414;2023-03-14T14:45:05;3.33;;;1.70;;
12263;SDS011;6194;49.010;8.414;2023-03-14T14:47:47;4.33;;;1.50;;
12263;SDS011;6194;49.010;8.414;2023-03-14T14:50:34;3.50;;;1.87;;
12263;SDS011;6194;49.010;8.414;2023-03-14T14:53:03;3.63;;;1.70;;
12263;SDS011;6194;49.010;8.414;2023-03-14T14:55:44;3.33;;;1.53;;
12263;SDS011;6194;49.010;8.414;2023-03-14T14:58:22;4.67;;;1.90;;
12263;SDS011;6194;49.010;8.414;2023-03-14T15:00:59;2.87;;;1.40;;
12263;SDS011;6194;49.010;8.414;2023-03-14T15:03:30;2.37;;;1.40;;
12263;SDS011;6194;49.010;8.414;2023-03-14T15:05:57;2.60;;;1.40;;
12263;SDS011;6194;49.010;8.414;2023-03-14T15:08:26;2.97;;;1.30;;
12263;SDS011;6194;49.010;8.414;2023-03-14T15:10:52;5.20;;;1.90;;
12263;SDS011;6194;49.010;8.414;2023-03-14T15:13:18;2.43;;;1.67;;
12263;SDS011;6194;49.010;8.414;2023-03-14T15:15:44;4.23;;;1.80;;
12263;SDS011;6194;49.010;8.414;2023-03-14T15:18:15;3.70;;;1.63;;
12263;SDS011;6194;49.010;8.414;2023-03-14T15:20:42;2.67;;;1.53;;
12263;SDS011;6194;49.010;8.414;2023-03-14T15:23:13;3.10;;;1.60;;
12263;SDS011;6194;49.010;8.414;2023-03-14T15:25:40;2.97;;;1.60;;
12263;SDS011;6194;49.010;8.414;2023-03-14T15:28:17;3.17;;;1.70;;
12263;SDS011;6194;49.010;8.414;2023-03-14T15:30:54;4.83;;;2.00;;
12263;SDS011;6194;49.010;8.414;2023-03-14T15:33:22;3.73;;;1.70;;
12263;SDS011;6194;49.010;8.414;2023-03-14T15:35:48;5.30;;;2.10;;
12263;SDS011;6194;49.010;8.414;2023-03-14T15:38:15;3.37;;;1.83;;
12263;SDS011;6194;49.010;8.414;2023-03-14T15:40:47;3.80;;;1.80;;
12263;SDS011;6194;49.010;8.414;2023-03-14T15:43:13;5.67;;;2.20;;
12263;SDS011;6194;49.010;8.414;2023-03-14T15:45:39;4.83;;;2.00;;
12263;SDS011;6194;49.010;8.414;2023-03-14T15:48:06;3.57;;;1.73;;
12263;SDS011;6194;49.010;8.414;2023-03-14T15:50:37;4.53;;;1.77;;
12263;SDS011;6194;49.010;8.414;2023-03-14T15:53:03;4.80;;;1.90;;
12263;SDS011;6194;49.010;8.414;2023-03-14T15:55:28;6.47;;;1.80;;
12263;SDS011;6194;49.010;8.414;2023-03-14T15:57:54;5.77;;;1.90;;
12263;SDS011;6194;49.010;8.414;2023-03-14T16:00:20;3.90;;;1.70;;
12263;SDS011;6194;49.010;8.414;2023-03-14T16:02:49;3.50;;;1.87;;
12263;SDS011;6194;49.010;8.414;2023-03-14T16:05:15;3.77;;;1.80;;
12263;SDS011;6194;49.010;8.414;2023-03-14T16:07:41;6.20;;;2.10;;
12263;SDS011;6194;49.010;8.414;2023-03-14T16:10:07;3.23;;;2.10;;
12263;SDS011;6194;49.010;8.414;2023-03-14T16:12:33;4.70;;;2.17;;
12263;SDS011;6194;49.010;8.414;2023-03-14T16:14:59;5.07;;;1.80;;
12263;SDS011;6194;49.010;8.414;2023-03-14T16:17:25;5.00;;;2.00;;
12263;SDS011;6194;49.010;8.414;2023-03-14T16:19:51;2.90;;;1.67;;
12263;SDS011;6194;49.010;8.414;2023-03-14T16:22:17;4.07;;;1.60;;
12263;SDS011;6194;49.010;8.414;2023-03-14T16:24:42;4.13;;;1.63;;
12263;SDS011;6194;49.010;8.414;2023-03-14T16:27:08;3.43;;;1.70;;
12263;SDS011;6194;49.010;8.414;2023-03-14T16:29:33;4.37;;;1.63;;
12263;SDS011;6194;49.010;8.414;2023-03-14T16:31:59;5.20;;;1.93;;
12263;SDS011;6194;49.010;8.414;2023-03-14T16:34:25;2.80;;;1.70;;
12263;SDS011;6194;49.010;8.414;2023-03-14T16:36:50;4.30;;;1.70;;
12263;SDS011;6194;49.010;8.414;2023-03-14T16:39:16;3.07;;;1.80;;
12263;SDS011;6194;49.010;8.414;2023-03-14T16:41:42;2.37;;;1.43;;